Bao An Cheng 69 — BVBD5 — position and weather

sailwx.info

Track history (hours):
 
Tides and Currents Weather Stations Pressure Air Temp Water Temp Dewpoint Dewpoint Depression Visibility Wind Speed Wind Dir Waves Ship Positions

Bao An Cheng 69

Last reported at 2017-Sep-25 05:55 UTC. Time now 2017-Sep-25 06:22 UTC.
Position N 23°21' E 116°44'.

Length 121 m; draft 6.5 m.

Type: Cargo ship. MMSI: 412703090.

Date/timePositionNaut miles runAvg speedWind from/ knotsBaromVisibWave heightAir tempDewpointWater temp
2017-Sep-25 05:55N 23°21' E 116°44'0 0.0
2017-Sep-25 05:25N 23°21' E 116°44'0 0.0
2017-Sep-25 04:55N 23°21' E 116°44'0 0.0
2017-Sep-25 04:25N 23°21' E 116°44'0 0.0
2017-Sep-25 03:55N 23°21' E 116°44'0 0.0
2017-Sep-25 03:25N 23°21' E 116°44'0 0.0
2017-Sep-25 02:55N 23°21' E 116°44'0 0.0
2017-Sep-25 02:25N 23°21' E 116°44'0 0.0
2017-Sep-25 01:55N 23°21' E 116°44'0 0.0
2017-Sep-25 01:25N 23°21' E 116°44'0 0.0
2017-Sep-25 00:55N 23°21' E 116°44'0 0.0
2017-Sep-25 00:25N 23°21' E 116°44'0 0.0
2017-Sep-24 23:55N 23°21' E 116°44'0 0.0
2017-Sep-24 23:25N 23°21' E 116°44'0 0.0
2017-Sep-24 22:55N 23°21' E 116°44'0 0.0
2017-Sep-24 22:25N 23°21' E 116°44'0 0.0
2017-Sep-24 21:55N 23°21' E 116°44'0 0.0
2017-Sep-24 21:30N 23°21' E 116°44'2 3.4
2017-Sep-24 21:00N 23°20' E 116°45'4 7.2
2017-Sep-24 20:30N 23°17' E 116°48'3 5.1
2017-Sep-24 20:00N 23°16' E 116°50'0 0.3
2017-Sep-24 19:26N 23°16' E 116°50'0 0.0
2017-Sep-24 18:50N 23°16' E 116°50'0 0.0
2017-Sep-24 18:20N 23°16' E 116°50'0 0.0
2017-Sep-24 17:56N 23°16' E 116°50'0 0.0
2017-Sep-24 17:26N 23°16' E 116°50'0 0.0
2017-Sep-24 16:56N 23°16' E 116°50'0 0.0
2017-Sep-24 16:26N 23°16' E 116°50'0 0.0
2017-Sep-24 15:56N 23°16' E 116°50'0 0.1
2017-Sep-24 15:26N 23°16' E 116°50'0 0.0
2017-Sep-24 14:08N 23°16' E 116°50'0 0.0
2017-Sep-24 13:56N 23°16' E 116°50'0 0.0
2017-Sep-24 09:08N 23°16' E 116°50'0 0.3
2017-Sep-24 08:56N 23°16' E 116°50'0 0.1
2017-Sep-24 08:20N 23°16' E 116°50'0 0.0
2017-Sep-24 07:56N 23°16' E 116°50'0 0.1
2017-Sep-24 07:26N 23°16' E 116°50'0 0.0
2017-Sep-24 06:56N 23°16' E 116°50'0 0.0
2017-Sep-24 06:26N 23°16' E 116°50'0 0.0
2017-Sep-24 05:56N 23°16' E 116°50'0 0.0
2017-Sep-24 05:26N 23°16' E 116°50'0 0.0
2017-Sep-24 04:56N 23°16' E 116°50'0 0.0
2017-Sep-24 02:50N 23°16' E 116°50'0 0.0
2017-Sep-24 02:26N 23°16' E 116°50'0 0.0
2017-Sep-24 01:02N 23°16' E 116°50'0 0.0
2017-Sep-24 00:56N 23°16' E 116°50'0 0.0
2017-Sep-23 19:44N 23°16' E 116°50'0 0.0
2017-Sep-22 01:46N 23°16' E 116°50'0 0.0
2017-Sep-22 01:28N 23°16' E 116°50'0 0.1
2017-Sep-22 00:52N 23°16' E 116°50'0 0.0
2017-Sep-21 17:02N 23°16' E 116°50'0 0.0
2017-Sep-21 16:44N 23°16' E 116°50'0 0.0
2017-Sep-21 16:26N 23°16' E 116°50'0 0.0
2017-Sep-21 15:56N 23°16' E 116°50'0 0.0
2017-Sep-21 15:20N 23°16' E 116°50'0 0.0
2017-Sep-21 13:50N 23°16' E 116°50'0 0.0
2017-Sep-21 13:20N 23°16' E 116°50'0 0.2
2017-Sep-21 12:56N 23°16' E 116°50'0 0.0
2017-Sep-21 12:20N 23°16' E 116°50'0 0.0
2017-Sep-21 11:50N 23°16' E 116°50'0 0.0
2017-Sep-21 11:20N 23°16' E 116°50'0 0.1
2017-Sep-21 10:50N 23°16' E 116°50'0 0.1
2017-Sep-21 10:08N 23°16' E 116°50'0 0.2
2017-Sep-21 09:40N 23°16' E 116°50'0 1.4
2017-Sep-21 09:30N 23°16' E 116°50'48 9.8
2017-Sep-21 04:37N 23°39' E 117°36'1 9.4
2017-Sep-21 04:30N 23°39' E 117°37'5 9.1
2017-Sep-21 04:00N 23°42' E 117°41'4 8.6
2017-Sep-21 03:30N 23°45' E 117°45'29 8.1
2017-Sep-20 23:55N 24°03' E 118°10'55 9.1
2017-Sep-20 17:52N 24°45' E 118°48'4 9.4
2017-Sep-20 17:28N 24°48' E 118°46'3 6.0
2017-Sep-20 16:58N 24°49' E 118°43'0 0.0
2017-Sep-20 16:30N 24°49' E 118°43'0 0.0
2017-Sep-20 15:59N 24°49' E 118°43'0 0.0
2017-Sep-20 12:50N 24°49' E 118°43'0 0.0
2017-Sep-20 10:32N 24°49' E 118°43'0 0.0
2017-Sep-20 10:14N 24°49' E 118°43'0 0.0
2017-Sep-20 09:55N 24°49' E 118°43'0 0.0
2017-Sep-20 08:14N 24°49' E 118°43'0 0.0
2017-Sep-20 07:56N 24°49' E 118°43'0 0.0
2017-Sep-20 07:25N 24°49' E 118°43'0 0.0
2017-Sep-20 05:29N 24°49' E 118°43'0 0.0
2017-Sep-20 04:59N 24°49' E 118°43'0 0.0
2017-Sep-20 03:59N 24°49' E 118°43'0 0.0
2017-Sep-20 03:11N 24°49' E 118°43'0 0.0
2017-Sep-20 02:53N 24°49' E 118°43'0 0.0
2017-Sep-20 02:05N 24°49' E 118°43'0 0.0
2017-Sep-19 23:11N 24°49' E 118°43'0 0.0
2017-Sep-19 22:58N 24°49' E 118°43'1 1.4
2017-Sep-19 22:30N 24°49' E 118°44'5 8.7
2017-Sep-19 21:56N 24°46' E 118°48'510.3
2017-Sep-19 21:29N 24°42' E 118°47'41 9.2
2017-Sep-19 17:01N 24°09' E 118°18'110.1
2017-Sep-19 16:57N 24°09' E 118°18'4 8.4
2017-Sep-19 16:30N 24°06' E 118°15'4 8.4
2017-Sep-19 15:59N 24°04' E 118°11'4 8.9
2017-Sep-19 15:30N 24°01' E 118°08'5 9.2
2017-Sep-19 14:59N 23°58' E 118°03'5 9.9
2017-Sep-19 14:29N 23°55' E 117°59'1710.6
2017-Sep-19 12:55N 23°45' E 117°45'511.6
2017-Sep-19 12:30N 23°42' E 117°41'1211.1
2017-Sep-19 11:26N 23°35' E 117°30'710.6
2017-Sep-19 10:45N 23°31' E 117°24'9 9.7
2017-Sep-19 09:51N 23°26' E 117°15'6 8.9
2017-Sep-19 09:09N 23°23' E 117°09'14 8.3
2017-Sep-19 07:27N 23°18' E 116°55'4 8.3
2017-Sep-19 07:00N 23°17' E 116°51'4 8.1
2017-Sep-19 06:30N 23°18' E 116°47'4 8.4
2017-Sep-19 06:00N 23°21' E 116°44'0 0.5
2017-Sep-19 05:30N 23°21' E 116°44'0 0.0
2017-Sep-19 04:57N 23°21' E 116°44'0 0.0
2017-Sep-19 04:27N 23°21' E 116°44'0 0.0
2017-Sep-19 03:57N 23°21' E 116°44'0 0.0
2017-Sep-19 03:27N 23°21' E 116°44'0 0.0
2017-Sep-19 02:57N 23°21' E 116°44'0 0.0
2017-Sep-19 02:27N 23°21' E 116°44'0 0.0
2017-Sep-19 01:57N 23°21' E 116°44'0 0.0
2017-Sep-19 01:27N 23°21' E 116°44'0 0.0
2017-Sep-19 00:57N 23°21' E 116°44'0 0.0
2017-Sep-19 00:27N 23°21' E 116°44'0 0.0
2017-Sep-18 23:57N 23°21' E 116°44'0 0.0
2017-Sep-18 23:21N 23°21' E 116°44'0 0.0
2017-Sep-18 22:57N 23°21' E 116°44'0 0.0
2017-Sep-18 22:21N 23°21' E 116°44'0 0.0
2017-Sep-18 21:57N 23°21' E 116°44'0 0.0
2017-Sep-18 21:27N 23°21' E 116°44'0 0.0
2017-Sep-18 20:51N 23°21' E 116°44'0 0.0
2017-Sep-18 20:27N 23°21' E 116°44'0 0.0
2017-Sep-18 19:57N 23°21' E 116°44'0 0.0
2017-Sep-18 19:27N 23°21' E 116°44'0 0.0
2017-Sep-18 18:57N 23°21' E 116°44'0 0.0
2017-Sep-18 18:27N 23°21' E 116°44'0 0.0
2017-Sep-18 17:57N 23°21' E 116°44'0 0.0
2017-Sep-18 17:27N 23°21' E 116°44'0 0.0
2017-Sep-18 16:57N 23°21' E 116°44'0 0.0
2017-Sep-18 16:21N 23°21' E 116°44'0 0.0
2017-Sep-18 15:51N 23°21' E 116°44'0 0.0
2017-Sep-18 15:27N 23°21' E 116°44'0 0.0
2017-Sep-18 14:57N 23°21' E 116°44'0 0.0
2017-Sep-18 14:15N 23°21' E 116°44'0 0.0
2017-Sep-18 13:51N 23°21' E 116°44'0 0.0
2017-Sep-18 13:27N 23°21' E 116°44'0 0.0
2017-Sep-18 12:57N 23°21' E 116°44'0 0.0
2017-Sep-18 12:27N 23°21' E 116°44'0 0.0
2017-Sep-18 11:57N 23°21' E 116°44'0 0.0
2017-Sep-18 11:21N 23°21' E 116°44'0 0.0
2017-Sep-18 10:57N 23°21' E 116°44'0 0.0
2017-Sep-18 10:27N 23°21' E 116°44'0 0.0
2017-Sep-18 09:57N 23°21' E 116°44'0 0.0
2017-Sep-18 09:09N 23°21' E 116°44'0 0.0
2017-Sep-18 08:39N 23°21' E 116°44'0 0.0
2017-Sep-18 08:21N 23°21' E 116°44'0 0.0
2017-Sep-18 07:57N 23°21' E 116°44'0 0.0
2017-Sep-18 07:27N 23°21' E 116°44'0 0.0
2017-Sep-18 06:57N 23°21' E 116°44'0 0.0
2017-Sep-18 06:27N 23°21' E 116°44'0 0.0
2017-Sep-18 05:51N 23°21' E 116°44'0 0.0
2017-Sep-18 05:27N 23°21' E 116°44'0 0.0
2017-Sep-18 04:21N 23°21' E 116°44'0 0.0
2017-Sep-18 03:57N 23°21' E 116°44'0 0.0
2017-Sep-18 03:30N 23°21' E 116°44'0 0.7
2017-Sep-18 03:01N 23°21' E 116°44'4 8.6
2017-Sep-18 02:30N 23°18' E 116°47'4 7.6
2017-Sep-18 02:00N 23°16' E 116°51'0 0.0
2017-Sep-18 00:42N 23°16' E 116°51'0 0.1
2017-Sep-18 00:18N 23°16' E 116°51'0 0.0
2017-Sep-17 23:54N 23°16' E 116°51'0 0.0
2017-Sep-17 22:54N 23°16' E 116°51'0 0.0
2017-Sep-17 22:30N 23°16' E 116°51'0 0.1
2017-Sep-17 21:59N 23°16' E 116°51'0 0.2
2017-Sep-17 21:29N 23°16' E 116°51'0 0.1
2017-Sep-17 20:59N 23°16' E 116°51'0 0.0
2017-Sep-17 20:23N 23°16' E 116°51'0 0.0
2017-Sep-17 19:59N 23°16' E 116°51'0 0.0
2017-Sep-17 18:17N 23°16' E 116°51'0 0.0
2017-Sep-17 17:59N 23°16' E 116°51'0 0.0
2017-Sep-17 15:47N 23°16' E 116°51'0 0.1
2017-Sep-17 15:29N 23°16' E 116°51'0 0.0
2017-Sep-17 10:41N 23°16' E 116°51'0 0.0
2017-Sep-17 10:29N 23°16' E 116°51'0 0.1
2017-Sep-17 08:47N 23°16' E 116°51'0 0.1
2017-Sep-17 08:29N 23°16' E 116°51'0 0.0
2017-Sep-17 06:47N 23°16' E 116°51'0 0.0
2017-Sep-17 06:23N 23°16' E 116°51'0 0.0
2017-Sep-17 04:11N 23°16' E 116°51'0 0.0
2017-Sep-17 03:53N 23°16' E 116°51'0 0.1
2017-Sep-17 03:28N 23°16' E 116°51'0 0.0
2017-Sep-17 02:44N 23°16' E 116°51'0 0.0
2017-Sep-17 02:02N 23°16' E 116°51'0 0.2
2017-Sep-17 01:44N 23°16' E 116°51'0 0.0
2017-Sep-17 01:26N 23°16' E 116°51'0 0.1
2017-Sep-17 00:50N 23°16' E 116°51'0 0.0
2017-Sep-17 00:26N 23°16' E 116°51'0 0.0
2017-Sep-16 23:56N 23°16' E 116°51'0 0.0
2017-Sep-16 23:08N 23°16' E 116°51'0 0.0
2017-Sep-16 22:56N 23°16' E 116°51'0 0.0
2017-Sep-16 22:26N 23°16' E 116°51'0 0.0
2017-Sep-16 21:56N 23°16' E 116°51'0 0.0
2017-Sep-16 20:56N 23°16' E 116°51'0 0.1
2017-Sep-16 20:26N 23°16' E 116°51'0 0.1
2017-Sep-16 19:50N 23°16' E 116°51'0 0.1
2017-Sep-16 19:20N 23°16' E 116°51'0 0.0
2017-Sep-16 18:50N 23°16' E 116°51'0 0.0
2017-Sep-16 18:26N 23°16' E 116°51'0 0.0
2017-Sep-16 17:50N 23°16' E 116°51'0 0.0
2017-Sep-16 17:20N 23°16' E 116°51'0 0.0
2017-Sep-16 16:56N 23°16' E 116°51'0 0.0
2017-Sep-16 16:20N 23°16' E 116°51'0 0.1
2017-Sep-16 15:56N 23°16' E 116°51'0 0.0
2017-Sep-16 15:20N 23°16' E 116°51'0 0.1
2017-Sep-16 14:50N 23°16' E 116°51'0 0.1
2017-Sep-16 14:26N 23°16' E 116°51'0 0.1
2017-Sep-16 13:56N 23°16' E 116°51'0 0.0
2017-Sep-16 12:14N 23°16' E 116°51'0 0.0
2017-Sep-16 11:50N 23°16' E 116°51'0 0.0
2017-Sep-16 11:20N 23°16' E 116°51'0 0.0
2017-Sep-16 10:20N 23°16' E 116°51'0 0.0
2017-Sep-16 09:50N 23°16' E 116°51'0 0.0
2017-Sep-16 09:14N 23°16' E 116°51'0 0.0
2017-Sep-16 07:26N 23°16' E 116°51'0 0.2
2017-Sep-16 06:50N 23°16' E 116°51'0 0.1
2017-Sep-16 06:26N 23°16' E 116°51'0 0.0
2017-Sep-16 05:56N 23°16' E 116°51'0 0.0
2017-Sep-16 05:26N 23°16' E 116°51'0 0.0
2017-Sep-16 04:38N 23°16' E 116°51'0 0.0
2017-Sep-16 04:26N 23°16' E 116°51'0 0.0
2017-Sep-16 03:50N 23°16' E 116°51'0 0.0
2017-Sep-16 03:26N 23°16' E 116°51'0 0.0
2017-Sep-16 02:50N 23°16' E 116°51'0 0.0
2017-Sep-16 02:26N 23°16' E 116°51'0 0.0
2017-Sep-16 01:56N 23°16' E 116°51'0 0.1
2017-Sep-16 01:14N 23°16' E 116°51'0 0.3
2017-Sep-16 01:00N 23°16' E 116°51'2 4.7
2017-Sep-16 00:30N 23°17' E 116°54'45 8.0
2017-Sep-15 18:55N 23°39' E 117°36'4 8.5
2017-Sep-15 18:30N 23°41' E 117°39'4 8.6
2017-Sep-15 18:00N 23°44' E 117°43'4 8.8
2017-Sep-15 17:30N 23°46' E 117°47'24 8.8
2017-Sep-15 14:49N 24°01' E 118°07'3 8.6
2017-Sep-15 14:26N 24°03' E 118°10'46 8.4
2017-Sep-15 08:56N 24°37' E 118°44'3 7.9
2017-Sep-15 08:30N 24°40' E 118°46'4 7.7
2017-Sep-15 08:00N 24°43' E 118°47'4 7.2
2017-Sep-15 07:30N 24°47' E 118°48'4 7.4
2017-Sep-15 06:58N 24°49' E 118°44'1 1.7
2017-Sep-15 06:30N 24°49' E 118°43'0 0.0
2017-Sep-15 05:59N 24°49' E 118°43'  
Track history (hours):
 
Tides and Currents Weather Stations Pressure Air Temp Water Temp Dewpoint Dewpoint Depression Visibility Wind Speed Wind Dir Waves Ship Positions

Bao An Cheng 69

Last reported at 2017-Sep-25 05:55 UTC. Time now 2017-Sep-25 06:22 UTC.
Position N 23°21' E 116°44'.

Length 121 m; draft 6.5 m.

Type: Cargo ship. MMSI: 412703090.

Date/timePositionNaut miles runAvg speedWind from/ knotsBaromVisibWave heightAir tempDewpointWater temp
2017-Sep-25 05:55N 23°21' E 116°44'0 0.0
2017-Sep-25 05:25N 23°21' E 116°44'0 0.0
2017-Sep-25 04:55N 23°21' E 116°44'0 0.0
2017-Sep-25 04:25N 23°21' E 116°44'0 0.0
2017-Sep-25 03:55N 23°21' E 116°44'0 0.0
2017-Sep-25 03:25N 23°21' E 116°44'0 0.0
2017-Sep-25 02:55N 23°21' E 116°44'0 0.0
2017-Sep-25 02:25N 23°21' E 116°44'0 0.0
2017-Sep-25 01:55N 23°21' E 116°44'0 0.0
2017-Sep-25 01:25N 23°21' E 116°44'0 0.0
2017-Sep-25 00:55N 23°21' E 116°44'0 0.0
2017-Sep-25 00:25N 23°21' E 116°44'0 0.0
2017-Sep-24 23:55N 23°21' E 116°44'0 0.0
2017-Sep-24 23:25N 23°21' E 116°44'0 0.0
2017-Sep-24 22:55N 23°21' E 116°44'0 0.0
2017-Sep-24 22:25N 23°21' E 116°44'0 0.0
2017-Sep-24 21:55N 23°21' E 116°44'0 0.0
2017-Sep-24 21:30N 23°21' E 116°44'2 3.4
2017-Sep-24 21:00N 23°20' E 116°45'4 7.2
2017-Sep-24 20:30N 23°17' E 116°48'3 5.1
2017-Sep-24 20:00N 23°16' E 116°50'0 0.3
2017-Sep-24 19:26N 23°16' E 116°50'0 0.0
2017-Sep-24 18:50N 23°16' E 116°50'0 0.0
2017-Sep-24 18:20N 23°16' E 116°50'0 0.0
2017-Sep-24 17:56N 23°16' E 116°50'0 0.0
2017-Sep-24 17:26N 23°16' E 116°50'0 0.0
2017-Sep-24 16:56N 23°16' E 116°50'0 0.0
2017-Sep-24 16:26N 23°16' E 116°50'0 0.0
2017-Sep-24 15:56N 23°16' E 116°50'0 0.1
2017-Sep-24 15:26N 23°16' E 116°50'0 0.0
2017-Sep-24 14:08N 23°16' E 116°50'0 0.0
2017-Sep-24 13:56N 23°16' E 116°50'0 0.0
2017-Sep-24 09:08N 23°16' E 116°50'0 0.3
2017-Sep-24 08:56N 23°16' E 116°50'0 0.1
2017-Sep-24 08:20N 23°16' E 116°50'0 0.0
2017-Sep-24 07:56N 23°16' E 116°50'0 0.1
2017-Sep-24 07:26N 23°16' E 116°50'0 0.0
2017-Sep-24 06:56N 23°16' E 116°50'0 0.0
2017-Sep-24 06:26N 23°16' E 116°50'0 0.0
2017-Sep-24 05:56N 23°16' E 116°50'0 0.0
2017-Sep-24 05:26N 23°16' E 116°50'0 0.0
2017-Sep-24 04:56N 23°16' E 116°50'0 0.0
2017-Sep-24 02:50N 23°16' E 116°50'0 0.0
2017-Sep-24 02:26N 23°16' E 116°50'0 0.0
2017-Sep-24 01:02N 23°16' E 116°50'0 0.0
2017-Sep-24 00:56N 23°16' E 116°50'0 0.0
2017-Sep-23 19:44N 23°16' E 116°50'0 0.0
2017-Sep-22 01:46N 23°16' E 116°50'0 0.0
2017-Sep-22 01:28N 23°16' E 116°50'0 0.1
2017-Sep-22 00:52N 23°16' E 116°50'0 0.0
2017-Sep-21 17:02N 23°16' E 116°50'0 0.0
2017-Sep-21 16:44N 23°16' E 116°50'0 0.0
2017-Sep-21 16:26N 23°16' E 116°50'0 0.0
2017-Sep-21 15:56N 23°16' E 116°50'0 0.0
2017-Sep-21 15:20N 23°16' E 116°50'0 0.0
2017-Sep-21 13:50N 23°16' E 116°50'0 0.0
2017-Sep-21 13:20N 23°16' E 116°50'0 0.2
2017-Sep-21 12:56N 23°16' E 116°50'0 0.0
2017-Sep-21 12:20N 23°16' E 116°50'0 0.0
2017-Sep-21 11:50N 23°16' E 116°50'0 0.0
2017-Sep-21 11:20N 23°16' E 116°50'0 0.1
2017-Sep-21 10:50N 23°16' E 116°50'0 0.1
2017-Sep-21 10:08N 23°16' E 116°50'0 0.2
2017-Sep-21 09:40N 23°16' E 116°50'0 1.4
2017-Sep-21 09:30N 23°16' E 116°50'48 9.8
2017-Sep-21 04:37N 23°39' E 117°36'1 9.4
2017-Sep-21 04:30N 23°39' E 117°37'5 9.1
2017-Sep-21 04:00N 23°42' E 117°41'4 8.6
2017-Sep-21 03:30N 23°45' E 117°45'29 8.1
2017-Sep-20 23:55N 24°03' E 118°10'55 9.1
2017-Sep-20 17:52N 24°45' E 118°48'4 9.4
2017-Sep-20 17:28N 24°48' E 118°46'3 6.0
2017-Sep-20 16:58N 24°49' E 118°43'0 0.0
2017-Sep-20 16:30N 24°49' E 118°43'0 0.0
2017-Sep-20 15:59N 24°49' E 118°43'0 0.0
2017-Sep-20 12:50N 24°49' E 118°43'0 0.0
2017-Sep-20 10:32N 24°49' E 118°43'0 0.0
2017-Sep-20 10:14N 24°49' E 118°43'0 0.0
2017-Sep-20 09:55N 24°49' E 118°43'0 0.0
2017-Sep-20 08:14N 24°49' E 118°43'0 0.0
2017-Sep-20 07:56N 24°49' E 118°43'0 0.0
2017-Sep-20 07:25N 24°49' E 118°43'0 0.0
2017-Sep-20 05:29N 24°49' E 118°43'0 0.0
2017-Sep-20 04:59N 24°49' E 118°43'0 0.0
2017-Sep-20 03:59N 24°49' E 118°43'0 0.0
2017-Sep-20 03:11N 24°49' E 118°43'0 0.0
2017-Sep-20 02:53N 24°49' E 118°43'0 0.0
2017-Sep-20 02:05N 24°49' E 118°43'0 0.0
2017-Sep-19 23:11N 24°49' E 118°43'0 0.0
2017-Sep-19 22:58N 24°49' E 118°43'1 1.4
2017-Sep-19 22:30N 24°49' E 118°44'5 8.7
2017-Sep-19 21:56N 24°46' E 118°48'510.3
2017-Sep-19 21:29N 24°42' E 118°47'41 9.2
2017-Sep-19 17:01N 24°09' E 118°18'110.1
2017-Sep-19 16:57N 24°09' E 118°18'4 8.4
2017-Sep-19 16:30N 24°06' E 118°15'4 8.4
2017-Sep-19 15:59N 24°04' E 118°11'4 8.9
2017-Sep-19 15:30N 24°01' E 118°08'5 9.2
2017-Sep-19 14:59N 23°58' E 118°03'5 9.9
2017-Sep-19 14:29N 23°55' E 117°59'1710.6
2017-Sep-19 12:55N 23°45' E 117°45'511.6
2017-Sep-19 12:30N 23°42' E 117°41'1211.1
2017-Sep-19 11:26N 23°35' E 117°30'710.6
2017-Sep-19 10:45N 23°31' E 117°24'9 9.7
2017-Sep-19 09:51N 23°26' E 117°15'6 8.9
2017-Sep-19 09:09N 23°23' E 117°09'14 8.3
2017-Sep-19 07:27N 23°18' E 116°55'4 8.3
2017-Sep-19 07:00N 23°17' E 116°51'4 8.1
2017-Sep-19 06:30N 23°18' E 116°47'4 8.4
2017-Sep-19 06:00N 23°21' E 116°44'0 0.5
2017-Sep-19 05:30N 23°21' E 116°44'0 0.0
2017-Sep-19 04:57N 23°21' E 116°44'0 0.0
2017-Sep-19 04:27N 23°21' E 116°44'0 0.0
2017-Sep-19 03:57N 23°21' E 116°44'0 0.0
2017-Sep-19 03:27N 23°21' E 116°44'0 0.0
2017-Sep-19 02:57N 23°21' E 116°44'0 0.0
2017-Sep-19 02:27N 23°21' E 116°44'0 0.0
2017-Sep-19 01:57N 23°21' E 116°44'0 0.0
2017-Sep-19 01:27N 23°21' E 116°44'0 0.0
2017-Sep-19 00:57N 23°21' E 116°44'0 0.0
2017-Sep-19 00:27N 23°21' E 116°44'0 0.0
2017-Sep-18 23:57N 23°21' E 116°44'0 0.0
2017-Sep-18 23:21N 23°21' E 116°44'0 0.0
2017-Sep-18 22:57N 23°21' E 116°44'0 0.0
2017-Sep-18 22:21N 23°21' E 116°44'0 0.0
2017-Sep-18 21:57N 23°21' E 116°44'0 0.0
2017-Sep-18 21:27N 23°21' E 116°44'0 0.0
2017-Sep-18 20:51N 23°21' E 116°44'0 0.0
2017-Sep-18 20:27N 23°21' E 116°44'0 0.0
2017-Sep-18 19:57N 23°21' E 116°44'0 0.0
2017-Sep-18 19:27N 23°21' E 116°44'0 0.0
2017-Sep-18 18:57N 23°21' E 116°44'0 0.0
2017-Sep-18 18:27N 23°21' E 116°44'0 0.0
2017-Sep-18 17:57N 23°21' E 116°44'0 0.0
2017-Sep-18 17:27N 23°21' E 116°44'0 0.0
2017-Sep-18 16:57N 23°21' E 116°44'0 0.0
2017-Sep-18 16:21N 23°21' E 116°44'0 0.0
2017-Sep-18 15:51N 23°21' E 116°44'0 0.0
2017-Sep-18 15:27N 23°21' E 116°44'0 0.0
2017-Sep-18 14:57N 23°21' E 116°44'0 0.0
2017-Sep-18 14:15N 23°21' E 116°44'0 0.0
2017-Sep-18 13:51N 23°21' E 116°44'0 0.0
2017-Sep-18 13:27N 23°21' E 116°44'0 0.0
2017-Sep-18 12:57N 23°21' E 116°44'0 0.0
2017-Sep-18 12:27N 23°21' E 116°44'0 0.0
2017-Sep-18 11:57N 23°21' E 116°44'0 0.0
2017-Sep-18 11:21N 23°21' E 116°44'0 0.0
2017-Sep-18 10:57N 23°21' E 116°44'0 0.0
2017-Sep-18 10:27N 23°21' E 116°44'0 0.0
2017-Sep-18 09:57N 23°21' E 116°44'0 0.0
2017-Sep-18 09:09N 23°21' E 116°44'0 0.0
2017-Sep-18 08:39N 23°21' E 116°44'0 0.0
2017-Sep-18 08:21N 23°21' E 116°44'0 0.0
2017-Sep-18 07:57N 23°21' E 116°44'0 0.0
2017-Sep-18 07:27N 23°21' E 116°44'0 0.0
2017-Sep-18 06:57N 23°21' E 116°44'0 0.0
2017-Sep-18 06:27N 23°21' E 116°44'0 0.0
2017-Sep-18 05:51N 23°21' E 116°44'0 0.0
2017-Sep-18 05:27N 23°21' E 116°44'0 0.0
2017-Sep-18 04:21N 23°21' E 116°44'0 0.0
2017-Sep-18 03:57N 23°21' E 116°44'0 0.0
2017-Sep-18 03:30N 23°21' E 116°44'0 0.7
2017-Sep-18 03:01N 23°21' E 116°44'4 8.6
2017-Sep-18 02:30N 23°18' E 116°47'4 7.6
2017-Sep-18 02:00N 23°16' E 116°51'0 0.0
2017-Sep-18 00:42N 23°16' E 116°51'0 0.1
2017-Sep-18 00:18N 23°16' E 116°51'0 0.0
2017-Sep-17 23:54N 23°16' E 116°51'0 0.0
2017-Sep-17 22:54N 23°16' E 116°51'0 0.0
2017-Sep-17 22:30N 23°16' E 116°51'0 0.1
2017-Sep-17 21:59N 23°16' E 116°51'0 0.2
2017-Sep-17 21:29N 23°16' E 116°51'0 0.1
2017-Sep-17 20:59N 23°16' E 116°51'0 0.0
2017-Sep-17 20:23N 23°16' E 116°51'0 0.0
2017-Sep-17 19:59N 23°16' E 116°51'0 0.0
2017-Sep-17 18:17N 23°16' E 116°51'0 0.0
2017-Sep-17 17:59N 23°16' E 116°51'0 0.0
2017-Sep-17 15:47N 23°16' E 116°51'0 0.1
2017-Sep-17 15:29N 23°16' E 116°51'0 0.0
2017-Sep-17 10:41N 23°16' E 116°51'0 0.0
2017-Sep-17 10:29N 23°16' E 116°51'0 0.1
2017-Sep-17 08:47N 23°16' E 116°51'0 0.1
2017-Sep-17 08:29N 23°16' E 116°51'0 0.0
2017-Sep-17 06:47N 23°16' E 116°51'0 0.0
2017-Sep-17 06:23N 23°16' E 116°51'0 0.0
2017-Sep-17 04:11N 23°16' E 116°51'0 0.0
2017-Sep-17 03:53N 23°16' E 116°51'0 0.1
2017-Sep-17 03:28N 23°16' E 116°51'0 0.0
2017-Sep-17 02:44N 23°16' E 116°51'0 0.0
2017-Sep-17 02:02N 23°16' E 116°51'0 0.2
2017-Sep-17 01:44N 23°16' E 116°51'0 0.0
2017-Sep-17 01:26N 23°16' E 116°51'0 0.1
2017-Sep-17 00:50N 23°16' E 116°51'0 0.0
2017-Sep-17 00:26N 23°16' E 116°51'0 0.0
2017-Sep-16 23:56N 23°16' E 116°51'0 0.0
2017-Sep-16 23:08N 23°16' E 116°51'0 0.0
2017-Sep-16 22:56N 23°16' E 116°51'0 0.0
2017-Sep-16 22:26N 23°16' E 116°51'0 0.0
2017-Sep-16 21:56N 23°16' E 116°51'0 0.0
2017-Sep-16 20:56N 23°16' E 116°51'0 0.1
2017-Sep-16 20:26N 23°16' E 116°51'0 0.1
2017-Sep-16 19:50N 23°16' E 116°51'0 0.1
2017-Sep-16 19:20N 23°16' E 116°51'0 0.0
2017-Sep-16 18:50N 23°16' E 116°51'0 0.0
2017-Sep-16 18:26N 23°16' E 116°51'0 0.0
2017-Sep-16 17:50N 23°16' E 116°51'0 0.0
2017-Sep-16 17:20N 23°16' E 116°51'0 0.0
2017-Sep-16 16:56N 23°16' E 116°51'0 0.0
2017-Sep-16 16:20N 23°16' E 116°51'0 0.1
2017-Sep-16 15:56N 23°16' E 116°51'0 0.0
2017-Sep-16 15:20N 23°16' E 116°51'0 0.1
2017-Sep-16 14:50N 23°16' E 116°51'0 0.1
2017-Sep-16 14:26N 23°16' E 116°51'0 0.1
2017-Sep-16 13:56N 23°16' E 116°51'0 0.0
2017-Sep-16 12:14N 23°16' E 116°51'0 0.0
2017-Sep-16 11:50N 23°16' E 116°51'0 0.0
2017-Sep-16 11:20N 23°16' E 116°51'0 0.0
2017-Sep-16 10:20N 23°16' E 116°51'0 0.0
2017-Sep-16 09:50N 23°16' E 116°51'0 0.0
2017-Sep-16 09:14N 23°16' E 116°51'0 0.0
2017-Sep-16 07:26N 23°16' E 116°51'0 0.2
2017-Sep-16 06:50N 23°16' E 116°51'0 0.1
2017-Sep-16 06:26N 23°16' E 116°51'0 0.0
2017-Sep-16 05:56N 23°16' E 116°51'0 0.0
2017-Sep-16 05:26N 23°16' E 116°51'0 0.0
2017-Sep-16 04:38N 23°16' E 116°51'0 0.0
2017-Sep-16 04:26N 23°16' E 116°51'0 0.0
2017-Sep-16 03:50N 23°16' E 116°51'0 0.0
2017-Sep-16 03:26N 23°16' E 116°51'0 0.0
2017-Sep-16 02:50N 23°16' E 116°51'0 0.0
2017-Sep-16 02:26N 23°16' E 116°51'0 0.0
2017-Sep-16 01:56N 23°16' E 116°51'0 0.1
2017-Sep-16 01:14N 23°16' E 116°51'0 0.3
2017-Sep-16 01:00N 23°16' E 116°51'2 4.7
2017-Sep-16 00:30N 23°17' E 116°54'45 8.0
2017-Sep-15 18:55N 23°39' E 117°36'4 8.5
2017-Sep-15 18:30N 23°41' E 117°39'4 8.6
2017-Sep-15 18:00N 23°44' E 117°43'4 8.8
2017-Sep-15 17:30N 23°46' E 117°47'24 8.8
2017-Sep-15 14:49N 24°01' E 118°07'3 8.6
2017-Sep-15 14:26N 24°03' E 118°10'46 8.4
2017-Sep-15 08:56N 24°37' E 118°44'3 7.9
2017-Sep-15 08:30N 24°40' E 118°46'4 7.7
2017-Sep-15 08:00N 24°43' E 118°47'4 7.2
2017-Sep-15 07:30N 24°47' E 118°48'4 7.4
2017-Sep-15 06:58N 24°49' E 118°44'1 1.7
2017-Sep-15 06:30N 24°49' E 118°43'0 0.0
2017-Sep-15 05:59N 24°49' E 118°43'  

Dump ship's entire track history